MUCF/CFG METAR and TAF weather

Enter ICAO airport designator
Station Type Date Time Source
MUCF METAR 2022/01/26 13:50 UTC NOAA

MUCF 261350Z 17004KT 120V200 9999 FEW030 21/17 Q1017


Station Type Date Time Source
MUCF Decoded METAR 2022/01/26 13:50 UTC NOAA

Cienfuegos, Las Villas, Cuba (MUCF) 22-09N 080-24W 39M
Jan 26, 2022 - 08:50 AM EST / 2022.01.26 1350 UTC
Wind: from the S (170 degrees) at 5 MPH (4 KT) (direction variable):0
Visibility: greater than 7 mile(s):0
Sky conditions: mostly clear
Temperature: 69 F (21 C)
Dew Point: 62 F (17 C)
Relative Humidity: 77%
Pressure (altimeter): 30.03 in. Hg (1017 hPa)
ob: MUCF 261350Z 17004KT 120V200 9999 FEW030 21/17 Q1017
cycle: 14

Station Type Date Time Source
MUCF TAF 2022/01/26 12:03 UTC NOAA

TAF MUCF 261100Z 2612/2624 VRB03KT 9000 SCT020
TEMPO 2612/2613 4000 BR
TEMPO 2616/2622 22010KT

Example: see airport list